QFA9188 YMML-YPAD
Flight info
| Callsign | QFA9188 |
|---|---|
| Flight time | 1h 4m |
| Altitude | 34000 |
| Route | ML H345 AD |
| Aircraft | B738/M-SDE2E3FGHIRWXY/LB1 |
Departure
| Time | 2026-05-05 05:55 |
|---|---|
| Airport | Melbourne Airport (YMML) |
Arrival
| Time | 2026-05-05 07:00 |
|---|---|
| Airport | Adelaide International Airport (YPAD) |
| Time | Latitude | Longitude | Altitude | Speed | Heading |
|---|---|---|---|---|---|
| 2026-05-05 05:35 | -37.67070 | 144.84624 | 442 ft | 0 kts | 172° |
| 2026-05-05 05:42 | -37.67055 | 144.84622 | 442 ft | 2 kts | 170° |
| 2026-05-05 05:43 | -37.67041 | 144.84619 | 442 ft | 2 kts | 170° |
| 2026-05-05 05:43 | -37.67025 | 144.84616 | 442 ft | 2 kts | 171° |
| 2026-05-05 05:43 | -37.67014 | 144.84613 | 442 ft | 1 kts | 195° |
| 2026-05-05 05:43 | -37.67007 | 144.84621 | 442 ft | 1 kts | 256° |
| 2026-05-05 05:44 | -37.67006 | 144.84630 | 442 ft | 1 kts | 265° |
| 2026-05-05 05:44 | -37.67006 | 144.84631 | 442 ft | 0 kts | 265° |
| 2026-05-05 05:49 | -37.67012 | 144.84578 | 442 ft | 9 kts | 263° |
| 2026-05-05 05:49 | -37.67030 | 144.84462 | 442 ft | 15 kts | 245° |
| 2026-05-05 05:49 | -37.67060 | 144.84308 | 442 ft | 19 kts | 262° |
| 2026-05-05 05:50 | -37.67082 | 144.84119 | 442 ft | 21 kts | 270° |
| 2026-05-05 05:50 | -37.66983 | 144.84019 | 442 ft | 17 kts | 351° |
| 2026-05-05 05:50 | -37.66849 | 144.83992 | 442 ft | 19 kts | 352° |
| 2026-05-05 05:50 | -37.66727 | 144.84032 | 442 ft | 18 kts | 66° |
| 2026-05-05 05:51 | -37.66702 | 144.84204 | 442 ft | 20 kts | 81° |
| 2026-05-05 05:51 | -37.66688 | 144.84317 | 442 ft | 2 kts | 77° |
| 2026-05-05 05:51 | -37.66678 | 144.84355 | 442 ft | 5 kts | 49° |
| 2026-05-05 05:51 | -37.66631 | 144.84376 | 442 ft | 9 kts | 358° |
| 2026-05-05 05:52 | -37.66540 | 144.84376 | 442 ft | 14 kts | 29° |
| 2026-05-05 05:52 | -37.66503 | 144.84508 | 442 ft | 17 kts | 82° |
| 2026-05-05 05:52 | -37.66481 | 144.84674 | 442 ft | 19 kts | 73° |
| 2026-05-05 05:52 | -37.66389 | 144.84781 | 442 ft | 16 kts | 8° |
| 2026-05-05 05:53 | -37.66347 | 144.84786 | 442 ft | 0 kts | 5° |
| 2026-05-05 05:54 | -37.66336 | 144.84787 | 442 ft | 3 kts | 1° |
| 2026-05-05 05:54 | -37.66288 | 144.84778 | 442 ft | 12 kts | 342° |
| 2026-05-05 05:54 | -37.66219 | 144.84672 | 442 ft | 20 kts | 279° |
| 2026-05-05 05:55 | -37.66188 | 144.84166 | 442 ft | 96 kts | 274° |
| 2026-05-05 05:55 | -37.66118 | 144.82976 | 444 ft | 165 kts | 271° |
| 2026-05-05 05:55 | -37.66018 | 144.81360 | 895 ft | 190 kts | 272° |
| 2026-05-05 05:55 | -37.65913 | 144.79617 | 1665 ft | 203 kts | 272° |
| 2026-05-05 05:56 | -37.65800 | 144.77756 | 2228 ft | 221 kts | 272° |
| 2026-05-05 05:56 | -37.65678 | 144.75723 | 2879 ft | 235 kts | 272° |
| 2026-05-05 05:56 | -37.65555 | 144.73656 | 3765 ft | 241 kts | 272° |
| 2026-05-05 05:56 | -37.65427 | 144.71474 | 4585 ft | 250 kts | 272° |
| 2026-05-05 05:57 | -37.65295 | 144.69212 | 5536 ft | 253 kts | 272° |
| 2026-05-05 05:57 | -37.65163 | 144.66942 | 6488 ft | 256 kts | 273° |
| 2026-05-05 05:57 | -37.64846 | 144.64711 | 7405 ft | 259 kts | 286° |
| 2026-05-05 05:57 | -37.64185 | 144.62538 | 8354 ft | 261 kts | 290° |
| 2026-05-05 05:58 | -37.63472 | 144.60397 | 9238 ft | 263 kts | 290° |
| 2026-05-05 05:58 | -37.62766 | 144.58249 | 10106 ft | 265 kts | 290° |
| 2026-05-05 05:58 | -37.62057 | 144.56061 | 10704 ft | 277 kts | 290° |
| 2026-05-05 05:58 | -37.61278 | 144.53645 | 10884 ft | 303 kts | 290° |
| 2026-05-05 05:59 | -37.60428 | 144.51006 | 11124 ft | 326 kts | 291° |
| 2026-05-05 05:59 | -37.59538 | 144.48244 | 11810 ft | 333 kts | 291° |
| 2026-05-05 05:59 | -37.58625 | 144.45413 | 12571 ft | 337 kts | 291° |
| 2026-05-05 05:59 | -37.57722 | 144.42624 | 13391 ft | 339 kts | 291° |
| 2026-05-05 06:00 | -37.56522 | 144.38916 | 14404 ft | 342 kts | 291° |
| 2026-05-05 06:00 | -37.55928 | 144.37082 | 14897 ft | 343 kts | 291° |
| 2026-05-05 06:00 | -37.55003 | 144.34225 | 15640 ft | 345 kts | 291° |
| 2026-05-05 06:00 | -37.54077 | 144.31377 | 16370 ft | 347 kts | 291° |
| 2026-05-05 06:01 | -37.53138 | 144.28488 | 17077 ft | 349 kts | 291° |
| 2026-05-05 06:01 | -37.52212 | 144.25638 | 17757 ft | 351 kts | 291° |
| 2026-05-05 06:01 | -37.51242 | 144.22656 | 18446 ft | 353 kts | 291° |
| 2026-05-05 06:01 | -37.50286 | 144.19717 | 19102 ft | 356 kts | 291° |
| 2026-05-05 06:02 | -37.49320 | 144.16754 | 19743 ft | 358 kts | 291° |
| 2026-05-05 06:02 | -37.48360 | 144.13812 | 20362 ft | 360 kts | 291° |
| 2026-05-05 06:02 | -37.47395 | 144.10854 | 20965 ft | 362 kts | 291° |
| 2026-05-05 06:02 | -37.46419 | 144.07864 | 21550 ft | 364 kts | 291° |
| 2026-05-05 06:03 | -37.45433 | 144.04849 | 22111 ft | 366 kts | 291° |
| 2026-05-05 06:03 | -37.44453 | 144.01855 | 22660 ft | 368 kts | 291° |
| 2026-05-05 06:03 | -37.43458 | 143.98819 | 23205 ft | 369 kts | 291° |
| 2026-05-05 06:03 | -37.42440 | 143.95715 | 23727 ft | 372 kts | 291° |
| 2026-05-05 06:04 | -37.41427 | 143.92630 | 24242 ft | 373 kts | 291° |
| 2026-05-05 06:04 | -37.40411 | 143.89540 | 24742 ft | 375 kts | 291° |
| 2026-05-05 06:04 | -37.39381 | 143.86404 | 25225 ft | 377 kts | 291° |
| 2026-05-05 06:04 | -37.38367 | 143.83325 | 25680 ft | 379 kts | 291° |
| 2026-05-05 06:05 | -37.37351 | 143.80244 | 26126 ft | 381 kts | 291° |
| 2026-05-05 06:05 | -37.36320 | 143.77122 | 26571 ft | 383 kts | 291° |
| 2026-05-05 06:05 | -37.35284 | 143.73988 | 27002 ft | 384 kts | 291° |
| 2026-05-05 06:05 | -37.34238 | 143.70822 | 27421 ft | 386 kts | 291° |
| 2026-05-05 06:06 | -37.33199 | 143.67685 | 27803 ft | 388 kts | 291° |
| 2026-05-05 06:06 | -37.32147 | 143.64510 | 28205 ft | 390 kts | 291° |
| 2026-05-05 06:06 | -37.31109 | 143.61381 | 28583 ft | 391 kts | 291° |
| 2026-05-05 06:06 | -37.30045 | 143.58177 | 28952 ft | 393 kts | 291° |
| 2026-05-05 06:07 | -37.28986 | 143.54990 | 29324 ft | 394 kts | 291° |
| 2026-05-05 06:07 | -37.27920 | 143.51791 | 29636 ft | 396 kts | 291° |
| 2026-05-05 06:07 | -37.26850 | 143.48583 | 30034 ft | 396 kts | 291° |
| 2026-05-05 06:07 | -37.25773 | 143.45352 | 30492 ft | 394 kts | 291° |
| 2026-05-05 06:08 | -37.24696 | 143.42131 | 30954 ft | 392 kts | 291° |
| 2026-05-05 06:08 | -37.23640 | 143.38968 | 31395 ft | 391 kts | 291° |
| 2026-05-05 06:08 | -37.22573 | 143.35773 | 31845 ft | 388 kts | 291° |
| 2026-05-05 06:08 | -37.21513 | 143.32619 | 32293 ft | 386 kts | 292° |
| 2026-05-05 06:09 | -37.20448 | 143.29462 | 32756 ft | 384 kts | 292° |
| 2026-05-05 06:09 | -37.19390 | 143.26297 | 33210 ft | 382 kts | 291° |
| 2026-05-05 06:09 | -37.18423 | 143.23195 | 33656 ft | 379 kts | 290° |
| 2026-05-05 06:09 | -37.17481 | 143.20073 | 34066 ft | 377 kts | 290° |
| 2026-05-05 06:10 | -37.15611 | 143.13893 | 34098 ft | 376 kts | 290° |
| 2026-05-05 06:10 | -37.13746 | 143.07768 | 34102 ft | 372 kts | 290° |
| 2026-05-05 06:11 | -37.11880 | 143.01662 | 34101 ft | 374 kts | 290° |
| 2026-05-05 06:11 | -37.10006 | 142.95554 | 34101 ft | 377 kts | 290° |
| 2026-05-05 06:12 | -37.08089 | 142.89316 | 34101 ft | 378 kts | 290° |
| 2026-05-05 06:12 | -37.06153 | 142.83023 | 34101 ft | 379 kts | 290° |
| 2026-05-05 06:13 | -37.04218 | 142.76749 | 34101 ft | 378 kts | 290° |
| 2026-05-05 06:13 | -37.02298 | 142.70552 | 34101 ft | 377 kts | 290° |
| 2026-05-05 06:14 | -37.00388 | 142.64398 | 34101 ft | 375 kts | 290° |
| 2026-05-05 06:14 | -36.98449 | 142.58160 | 34101 ft | 374 kts | 290° |
| 2026-05-05 06:15 | -36.96505 | 142.51918 | 34101 ft | 373 kts | 290° |
| 2026-05-05 06:15 | -36.94558 | 142.45683 | 34101 ft | 372 kts | 290° |
| 2026-05-05 06:16 | -36.92607 | 142.39450 | 34101 ft | 372 kts | 290° |
| 2026-05-05 06:16 | -36.90685 | 142.33325 | 34101 ft | 373 kts | 291° |
| 2026-05-05 06:17 | -36.88752 | 142.27216 | 34101 ft | 373 kts | 291° |
| 2026-05-05 06:17 | -36.86829 | 142.21121 | 34101 ft | 373 kts | 291° |
| 2026-05-05 06:18 | -36.84899 | 142.15015 | 34101 ft | 372 kts | 291° |
| 2026-05-05 06:18 | -36.82985 | 142.08968 | 34101 ft | 373 kts | 291° |
| 2026-05-05 06:19 | -36.81009 | 142.02736 | 34101 ft | 373 kts | 291° |
| 2026-05-05 06:19 | -36.79049 | 141.96561 | 34101 ft | 373 kts | 291° |
| 2026-05-05 06:20 | -36.77117 | 141.90495 | 34101 ft | 372 kts | 291° |
| 2026-05-05 06:20 | -36.75143 | 141.84309 | 34101 ft | 372 kts | 291° |
| 2026-05-05 06:21 | -36.73211 | 141.78261 | 34101 ft | 373 kts | 291° |
| 2026-05-05 06:21 | -36.71245 | 141.72121 | 34101 ft | 373 kts | 291° |
| 2026-05-05 06:22 | -36.69233 | 141.65855 | 34101 ft | 373 kts | 291° |
| 2026-05-05 06:22 | -36.67211 | 141.59570 | 34101 ft | 373 kts | 291° |
| 2026-05-05 06:23 | -36.65229 | 141.53421 | 34101 ft | 373 kts | 291° |
| 2026-05-05 06:23 | -36.63284 | 141.47398 | 34101 ft | 373 kts | 291° |
| 2026-05-05 06:24 | -36.61293 | 141.41234 | 34240 ft | 371 kts | 291° |
| 2026-05-05 06:24 | -36.59293 | 141.35068 | 34261 ft | 374 kts | 291° |
| 2026-05-05 06:25 | -36.57268 | 141.28889 | 34262 ft | 373 kts | 291° |
| 2026-05-05 06:25 | -36.55288 | 141.22829 | 34263 ft | 372 kts | 292° |
| 2026-05-05 06:26 | -36.53286 | 141.16713 | 34263 ft | 373 kts | 291° |
| 2026-05-05 06:26 | -36.51287 | 141.10605 | 34263 ft | 373 kts | 291° |
| 2026-05-05 06:27 | -36.48277 | 141.01431 | 34263 ft | 374 kts | 291° |
| 2026-05-05 06:28 | -36.46240 | 140.95238 | 34263 ft | 376 kts | 291° |
| 2026-05-05 06:28 | -36.44241 | 140.89174 | 34263 ft | 376 kts | 291° |
| 2026-05-05 06:29 | -36.42221 | 140.83057 | 34263 ft | 377 kts | 291° |
| 2026-05-05 06:29 | -36.40104 | 140.76906 | 34262 ft | 377 kts | 294° |
| 2026-05-05 06:30 | -36.37305 | 140.71217 | 34265 ft | 380 kts | 303° |
| 2026-05-05 06:30 | -36.34019 | 140.65906 | 34263 ft | 381 kts | 304° |
| 2026-05-05 06:31 | -36.30686 | 140.60605 | 34263 ft | 381 kts | 304° |
| 2026-05-05 06:31 | -36.27333 | 140.55306 | 34263 ft | 380 kts | 304° |
| 2026-05-05 06:32 | -36.23950 | 140.49971 | 34263 ft | 380 kts | 304° |
| 2026-05-05 06:32 | -36.20573 | 140.44656 | 34263 ft | 381 kts | 304° |
| 2026-05-05 06:33 | -36.17220 | 140.39389 | 34263 ft | 381 kts | 304° |
| 2026-05-05 06:33 | -36.13860 | 140.34120 | 34264 ft | 381 kts | 305° |
| 2026-05-05 06:34 | -36.10531 | 140.28929 | 34263 ft | 381 kts | 305° |
| 2026-05-05 06:34 | -36.07206 | 140.23743 | 34263 ft | 381 kts | 305° |
| 2026-05-05 06:35 | -36.03850 | 140.18517 | 34263 ft | 381 kts | 304° |
| 2026-05-05 06:35 | -36.00500 | 140.13297 | 34263 ft | 381 kts | 304° |
| 2026-05-05 06:36 | -35.97147 | 140.08077 | 34263 ft | 381 kts | 305° |
| 2026-05-05 06:36 | -35.93745 | 140.02797 | 34263 ft | 381 kts | 304° |
| 2026-05-05 06:37 | -35.90379 | 139.97577 | 34263 ft | 381 kts | 304° |
| 2026-05-05 06:37 | -35.87020 | 139.92374 | 34263 ft | 381 kts | 304° |
| 2026-05-05 06:38 | -35.83718 | 139.87270 | 33936 ft | 372 kts | 304° |
| 2026-05-05 06:38 | -35.82073 | 139.84734 | 33247 ft | 371 kts | 304° |
| 2026-05-05 06:38 | -35.80375 | 139.82109 | 32587 ft | 379 kts | 304° |
| 2026-05-05 06:38 | -35.78700 | 139.79521 | 31894 ft | 377 kts | 304° |
| 2026-05-05 06:39 | -35.77058 | 139.76994 | 30783 ft | 376 kts | 305° |
| 2026-05-05 06:39 | -35.75418 | 139.74471 | 29900 ft | 370 kts | 305° |
| 2026-05-05 06:39 | -35.73777 | 139.71950 | 28888 ft | 367 kts | 305° |
| 2026-05-05 06:39 | -35.72199 | 139.69522 | 27969 ft | 363 kts | 305° |
| 2026-05-05 06:40 | -35.70603 | 139.67070 | 27003 ft | 359 kts | 305° |
| 2026-05-05 06:40 | -35.69056 | 139.64693 | 26162 ft | 354 kts | 305° |
| 2026-05-05 06:40 | -35.67530 | 139.62355 | 25616 ft | 341 kts | 305° |
| 2026-05-05 06:40 | -35.66023 | 139.60043 | 25151 ft | 345 kts | 305° |
| 2026-05-05 06:41 | -35.64458 | 139.57642 | 24657 ft | 351 kts | 305° |
| 2026-05-05 06:41 | -35.62878 | 139.55223 | 24141 ft | 338 kts | 305° |
| 2026-05-05 06:41 | -35.61378 | 139.52931 | 23654 ft | 338 kts | 305° |
| 2026-05-05 06:41 | -35.59858 | 139.50601 | 23143 ft | 348 kts | 305° |
| 2026-05-05 06:42 | -35.58328 | 139.48263 | 22598 ft | 344 kts | 305° |
| 2026-05-05 06:42 | -35.56839 | 139.45993 | 22107 ft | 338 kts | 305° |
| 2026-05-05 06:42 | -35.55352 | 139.43727 | 21610 ft | 332 kts | 305° |
| 2026-05-05 06:42 | -35.53891 | 139.41499 | 21129 ft | 336 kts | 305° |
| 2026-05-05 06:43 | -35.52412 | 139.39244 | 20632 ft | 335 kts | 305° |
| 2026-05-05 06:43 | -35.50926 | 139.36981 | 20144 ft | 330 kts | 305° |
| 2026-05-05 06:43 | -35.49483 | 139.34787 | 19660 ft | 327 kts | 306° |
| 2026-05-05 06:43 | -35.48025 | 139.32570 | 19176 ft | 333 kts | 306° |
| 2026-05-05 06:44 | -35.46571 | 139.30365 | 18679 ft | 328 kts | 306° |
| 2026-05-05 06:44 | -35.45113 | 139.28155 | 18194 ft | 323 kts | 306° |
| 2026-05-05 06:44 | -35.43677 | 139.26030 | 17695 ft | 325 kts | 309° |
| 2026-05-05 06:44 | -35.41992 | 139.24077 | 17214 ft | 331 kts | 319° |
| 2026-05-05 06:45 | -35.39974 | 139.22578 | 16713 ft | 332 kts | 330° |
| 2026-05-05 06:45 | -35.37833 | 139.21501 | 16224 ft | 330 kts | 334° |
| 2026-05-05 06:45 | -35.35666 | 139.20503 | 15702 ft | 329 kts | 335° |
| 2026-05-05 06:45 | -35.33448 | 139.19482 | 15201 ft | 333 kts | 335° |
| 2026-05-05 06:46 | -35.31303 | 139.18494 | 14682 ft | 330 kts | 335° |
| 2026-05-05 06:46 | -35.29153 | 139.17502 | 14183 ft | 326 kts | 335° |
| 2026-05-05 06:46 | -35.27017 | 139.16516 | 13691 ft | 322 kts | 335° |
| 2026-05-05 06:46 | -35.24900 | 139.15536 | 13203 ft | 320 kts | 335° |
| 2026-05-05 06:47 | -35.22765 | 139.14546 | 12720 ft | 325 kts | 335° |
| 2026-05-05 06:47 | -35.20615 | 139.13553 | 12213 ft | 321 kts | 336° |
| 2026-05-05 06:47 | -35.18532 | 139.12590 | 11729 ft | 318 kts | 336° |
| 2026-05-05 06:47 | -35.16456 | 139.11633 | 11248 ft | 315 kts | 336° |
| 2026-05-05 06:48 | -35.14361 | 139.10666 | 10637 ft | 316 kts | 336° |
| 2026-05-05 06:48 | -35.12295 | 139.09714 | 10297 ft | 305 kts | 336° |
| 2026-05-05 06:48 | -35.10332 | 139.08813 | 10229 ft | 285 kts | 336° |
| 2026-05-05 06:48 | -35.08509 | 139.07977 | 10157 ft | 266 kts | 335° |
| 2026-05-05 06:49 | -35.06826 | 139.07054 | 9870 ft | 259 kts | 323° |
| 2026-05-05 06:49 | -35.05388 | 139.05611 | 9528 ft | 262 kts | 314° |
| 2026-05-05 06:49 | -35.04017 | 139.04022 | 9171 ft | 260 kts | 313° |
| 2026-05-05 06:49 | -35.02688 | 139.02495 | 8828 ft | 259 kts | 314° |
| 2026-05-05 06:50 | -35.01357 | 139.00984 | 8492 ft | 258 kts | 314° |
| 2026-05-05 06:50 | -35.00030 | 138.99490 | 8166 ft | 256 kts | 314° |
| 2026-05-05 06:50 | -34.98727 | 138.98027 | 7845 ft | 255 kts | 314° |
| 2026-05-05 06:50 | -34.97406 | 138.96545 | 7520 ft | 254 kts | 315° |
| 2026-05-05 06:51 | -34.96091 | 138.95071 | 7204 ft | 252 kts | 315° |
| 2026-05-05 06:51 | -34.94779 | 138.93602 | 6876 ft | 252 kts | 315° |
| 2026-05-05 06:51 | -34.93469 | 138.92137 | 6558 ft | 251 kts | 315° |
| 2026-05-05 06:51 | -34.92166 | 138.90680 | 6236 ft | 250 kts | 315° |
| 2026-05-05 06:52 | -34.90858 | 138.89218 | 5918 ft | 249 kts | 315° |
| 2026-05-05 06:52 | -34.89568 | 138.87776 | 5599 ft | 249 kts | 315° |
| 2026-05-05 06:52 | -34.88282 | 138.86342 | 5273 ft | 248 kts | 315° |
| 2026-05-05 06:52 | -34.86997 | 138.84907 | 5005 ft | 245 kts | 315° |
| 2026-05-05 06:53 | -34.85767 | 138.83537 | 4904 ft | 236 kts | 315° |
| 2026-05-05 06:53 | -34.84531 | 138.82159 | 4558 ft | 238 kts | 315° |
| 2026-05-05 06:53 | -34.83305 | 138.80791 | 4271 ft | 236 kts | 315° |
| 2026-05-05 06:53 | -34.82078 | 138.79425 | 4018 ft | 229 kts | 315° |
| 2026-05-05 06:54 | -34.80949 | 138.78125 | 3927 ft | 215 kts | 309° |
| 2026-05-05 06:54 | -34.80243 | 138.76602 | 3882 ft | 197 kts | 281° |
| 2026-05-05 06:54 | -34.80230 | 138.74997 | 3786 ft | 182 kts | 256° |
| 2026-05-05 06:54 | -34.80707 | 138.73621 | 3675 ft | 167 kts | 236° |
| 2026-05-05 06:55 | -34.81404 | 138.72575 | 3541 ft | 152 kts | 228° |
| 2026-05-05 06:55 | -34.82120 | 138.71616 | 3434 ft | 149 kts | 230° |
| 2026-05-05 06:55 | -34.82803 | 138.70650 | 3358 ft | 149 kts | 231° |
| 2026-05-05 06:55 | -34.83496 | 138.69650 | 3253 ft | 147 kts | 231° |
| 2026-05-05 06:56 | -34.84189 | 138.68648 | 3088 ft | 149 kts | 231° |
| 2026-05-05 06:56 | -34.84874 | 138.67658 | 2873 ft | 148 kts | 231° |
| 2026-05-05 06:56 | -34.85551 | 138.66676 | 2668 ft | 146 kts | 231° |
| 2026-05-05 06:56 | -34.86225 | 138.65700 | 2466 ft | 147 kts | 231° |
| 2026-05-05 06:57 | -34.86910 | 138.64706 | 2255 ft | 146 kts | 231° |
| 2026-05-05 06:57 | -34.87582 | 138.63734 | 2048 ft | 146 kts | 231° |
| 2026-05-05 06:57 | -34.88260 | 138.62750 | 1840 ft | 146 kts | 231° |
| 2026-05-05 06:57 | -34.88926 | 138.61784 | 1636 ft | 145 kts | 231° |
| 2026-05-05 06:58 | -34.89596 | 138.60812 | 1432 ft | 145 kts | 230° |
| 2026-05-05 06:58 | -34.90262 | 138.59847 | 1230 ft | 145 kts | 230° |
| 2026-05-05 06:58 | -34.90928 | 138.58879 | 1028 ft | 145 kts | 230° |
| 2026-05-05 06:58 | -34.91587 | 138.57922 | 829 ft | 144 kts | 230° |
| 2026-05-05 06:59 | -34.92243 | 138.56957 | 629 ft | 144 kts | 230° |
| 2026-05-05 06:59 | -34.92898 | 138.55992 | 471 ft | 144 kts | 229° |
| 2026-05-05 06:59 | -34.93564 | 138.55039 | 214 ft | 144 kts | 229° |
| 2026-05-05 06:59 | -34.94217 | 138.54102 | 55 ft | 140 kts | 228° |
| 2026-05-05 07:00 | -34.94769 | 138.53299 | 34 ft | 92 kts | 231° |
| 2026-05-05 07:00 | -34.95045 | 138.52893 | 32 ft | 33 kts | 231° |
| 2026-05-05 07:00 | -34.95150 | 138.52740 | 32 ft | 23 kts | 230° |
| 2026-05-05 07:00 | -34.95239 | 138.52599 | 32 ft | 16 kts | 258° |
| 2026-05-05 07:01 | -34.95161 | 138.52481 | 32 ft | 21 kts | 326° |
| 2026-05-05 07:01 | -34.95013 | 138.52472 | 32 ft | 21 kts | 31° |
| 2026-05-05 07:01 | -34.94877 | 138.52597 | 32 ft | 26 kts | 37° |
| 2026-05-05 07:01 | -34.94716 | 138.52748 | 32 ft | 32 kts | 37° |
| 2026-05-05 07:02 | -34.94548 | 138.52907 | 32 ft | 28 kts | 38° |
| 2026-05-05 07:02 | -34.94454 | 138.52995 | 32 ft | 13 kts | 33° |
| 2026-05-05 07:02 | -34.94421 | 138.53015 | 33 ft | 0 kts | 16° |
| 2026-05-05 07:03 | -34.94419 | 138.53018 | 33 ft | 1 kts | 47° |
| 2026-05-05 07:03 | -34.94432 | 138.53065 | 34 ft | 13 kts | 120° |
| 2026-05-05 07:03 | -34.94493 | 138.53181 | 36 ft | 16 kts | 121° |
| 2026-05-05 07:03 | -34.94509 | 138.53323 | 36 ft | 16 kts | 66° |
| 2026-05-05 07:04 | -34.94435 | 138.53447 | 36 ft | 18 kts | 50° |
| 2026-05-05 07:04 | -34.94347 | 138.53575 | 36 ft | 20 kts | 50° |
| 2026-05-05 07:04 | -34.94249 | 138.53653 | 37 ft | 15 kts | 342° |
| 2026-05-05 07:04 | -34.94168 | 138.53644 | 39 ft | 9 kts | 339° |
| 2026-05-05 07:05 | -34.94115 | 138.53597 | 39 ft | 3 kts | 319° |
| 2026-05-05 07:05 | -34.94108 | 138.53589 | 39 ft | 0 kts | 320° |